createdAt,value
2022-12-27T00:01:12.209Z,1.03
2022-12-27T00:03:40.801Z,0.70
2022-12-27T00:06:10.047Z,2.30
2022-12-27T00:08:39.408Z,1.03
2022-12-27T00:11:08.559Z,1.13
2022-12-27T00:13:36.622Z,0.87
2022-12-27T00:16:06.236Z,1.63
2022-12-27T00:18:34.335Z,1.23
2022-12-27T00:21:04.016Z,1.17
2022-12-27T00:23:34.214Z,1.10
2022-12-27T00:26:04.679Z,1.87
2022-12-27T00:28:33.221Z,1.10
2022-12-27T00:31:02.463Z,1.87
2022-12-27T00:33:32.624Z,0.70
2022-12-27T00:36:01.588Z,0.40
2022-12-27T00:38:29.998Z,1.03
2022-12-27T00:40:57.953Z,0.40
2022-12-27T00:43:27.279Z,2.20
2022-12-27T00:45:55.659Z,1.27
2022-12-27T00:48:23.721Z,1.07
2022-12-27T00:50:51.979Z,0.60
2022-12-27T00:53:19.863Z,0.50
2022-12-27T00:55:48.293Z,0.60
2022-12-27T00:58:16.189Z,0.70
2022-12-27T01:00:45.553Z,0.77
2022-12-27T01:03:13.662Z,0.70
2022-12-27T01:05:41.557Z,0.70
2022-12-27T01:08:10.045Z,0.77
2022-12-27T01:10:38.140Z,0.67
2022-12-27T01:13:06.046Z,0.70
2022-12-27T01:15:34.117Z,0.70
2022-12-27T01:18:03.465Z,0.63
2022-12-27T01:20:31.377Z,0.83
2022-12-27T01:22:59.695Z,0.77
2022-12-27T01:25:27.620Z,1.10
2022-12-27T01:27:55.547Z,0.63
2022-12-27T01:30:23.475Z,0.73
2022-12-27T01:32:51.453Z,1.00
2022-12-27T01:35:20.796Z,0.87
2022-12-27T01:37:48.783Z,0.60
2022-12-27T01:40:16.902Z,0.73
2022-12-27T01:42:52.770Z,1.07
2022-12-27T01:45:22.252Z,0.70
2022-12-27T01:48:00.693Z,1.40
2022-12-27T01:50:35.363Z,1.10
2022-12-27T01:53:09.821Z,0.83
2022-12-27T01:55:42.581Z,0.53
2022-12-27T01:58:14.821Z,0.70
2022-12-27T02:00:46.464Z,1.27
2022-12-27T02:03:19.708Z,1.53
2022-12-27T02:05:49.599Z,2.20
2022-12-27T02:08:42.470Z,1.33
2022-12-27T02:11:11.971Z,1.33
2022-12-27T02:13:43.524Z,0.90
2022-12-27T02:16:14.035Z,1.47
2022-12-27T02:18:42.386Z,1.67
2022-12-27T02:21:38.299Z,1.67
2022-12-27T02:24:23.221Z,2.50
2022-12-27T02:26:56.687Z,0.80
2022-12-27T02:30:00.708Z,2.17
2022-12-27T02:32:36.052Z,1.10
2022-12-27T02:35:13.407Z,0.73
2022-12-27T02:37:49.871Z,0.80
2022-12-27T02:40:39.967Z,1.43
2022-12-27T02:43:25.923Z,1.00
2022-12-27T02:46:21.846Z,1.10
2022-12-27T02:49:12.524Z,2.40
2022-12-27T02:52:13.936Z,1.63
2022-12-27T02:55:14.469Z,1.93
2022-12-27T02:57:48.873Z,1.10
2022-12-27T03:00:36.406Z,1.10
2022-12-27T03:03:24.049Z,2.27
2022-12-27T03:06:35.867Z,0.87
2022-12-27T03:09:10.303Z,2.00
2022-12-27T03:12:09.470Z,1.33
2022-12-27T03:14:58.770Z,2.43
2022-12-27T03:17:33.505Z,4.30
2022-12-27T03:20:24.028Z,1.47
2022-12-27T03:23:12.646Z,1.73
2022-12-27T03:25:43.845Z,1.73
2022-12-27T03:28:36.071Z,1.03
2022-12-27T03:31:27.997Z,1.67
2022-12-27T03:34:25.544Z,1.00
2022-12-27T03:37:15.767Z,1.50
2022-12-27T03:39:49.461Z,1.53
2022-12-27T03:42:41.858Z,1.33
2022-12-27T03:45:11.233Z,1.10
2022-12-27T03:47:45.427Z,1.33
2022-12-27T03:50:20.157Z,1.83
2022-12-27T03:52:54.594Z,0.97
2022-12-27T03:55:24.437Z,1.97
2022-12-27T03:57:54.568Z,2.07
2022-12-27T04:00:22.722Z,1.37
2022-12-27T04:02:50.816Z,4.20
2022-12-27T04:05:18.861Z,1.20
2022-12-27T04:08:04.281Z,1.17
2022-12-27T04:10:51.170Z,0.97
2022-12-27T04:13:36.492Z,0.90
2022-12-27T04:16:21.977Z,1.87
2022-12-27T04:19:07.052Z,1.03
2022-12-27T04:21:52.392Z,1.10
2022-12-27T04:24:37.815Z,1.43
2022-12-27T04:27:24.732Z,1.83
2022-12-27T04:30:10.069Z,3.00
2022-12-27T04:32:55.088Z,1.17
2022-12-27T04:35:23.000Z,1.87
2022-12-27T04:37:50.950Z,1.57
2022-12-27T04:40:32.784Z,2.03
2022-12-27T04:43:19.593Z,0.80
2022-12-27T04:46:05.095Z,2.57
2022-12-27T04:48:50.772Z,3.07
2022-12-27T04:51:36.135Z,2.17
2022-12-27T04:54:21.584Z,2.23
2022-12-27T04:56:49.515Z,2.73
2022-12-27T04:59:36.768Z,2.27
2022-12-27T05:02:04.932Z,4.10
2022-12-27T05:04:35.730Z,7.93
2022-12-27T05:07:24.925Z,6.57
2022-12-27T05:10:10.902Z,4.80
2022-12-27T05:12:56.369Z,2.17
2022-12-27T05:15:25.707Z,4.47
2022-12-27T05:17:53.598Z,4.23
2022-12-27T05:20:21.558Z,2.70
2022-12-27T05:23:06.962Z,3.13
2022-12-27T05:25:38.670Z,2.90
2022-12-27T05:28:08.692Z,3.57
2022-12-27T05:30:39.967Z,2.63
2022-12-27T05:33:08.606Z,1.97
2022-12-27T05:35:36.788Z,3.67
2022-12-27T05:38:04.853Z,1.87
2022-12-27T05:40:32.836Z,4.27
2022-12-27T05:43:01.455Z,3.07
2022-12-27T05:45:29.878Z,2.93
2022-12-27T05:47:59.975Z,3.13
2022-12-27T05:50:28.372Z,3.97
2022-12-27T05:52:57.052Z,3.80
2022-12-27T05:55:24.985Z,2.27
2022-12-27T05:57:52.925Z,2.30
2022-12-27T06:00:21.017Z,2.53
2022-12-27T06:02:48.998Z,3.03
2022-12-27T06:05:18.401Z,2.43
2022-12-27T06:07:46.591Z,3.07
2022-12-27T06:10:14.509Z,2.30
2022-12-27T06:12:42.400Z,3.07
2022-12-27T06:15:11.973Z,3.73
2022-12-27T06:17:39.879Z,2.17
2022-12-27T06:20:08.635Z,2.27
2022-12-27T06:22:38.030Z,2.67
2022-12-27T06:25:10.821Z,1.83
2022-12-27T06:27:42.188Z,2.00
2022-12-27T06:30:12.241Z,2.33
2022-12-27T06:32:40.229Z,2.43
2022-12-27T06:35:08.859Z,3.80
2022-12-27T06:37:38.200Z,1.57
2022-12-27T06:40:07.365Z,1.67
2022-12-27T06:42:35.316Z,3.80
2022-12-27T06:45:03.216Z,2.50
2022-12-27T06:47:31.088Z,1.90
2022-12-27T06:49:58.970Z,2.53
2022-12-27T06:52:26.884Z,2.80
2022-12-27T06:54:56.199Z,2.17
2022-12-27T06:57:24.120Z,2.67
2022-12-27T06:59:54.196Z,2.33
2022-12-27T07:02:22.394Z,1.70
2022-12-27T07:04:50.412Z,4.20
2022-12-27T07:07:18.435Z,2.00
2022-12-27T07:09:46.592Z,4.80
2022-12-27T07:12:15.899Z,1.90
2022-12-27T07:14:43.831Z,3.07
2022-12-27T07:17:11.699Z,2.93
2022-12-27T07:19:40.211Z,2.07
2022-12-27T07:22:08.132Z,1.60
2022-12-27T07:24:36.043Z,3.90
2022-12-27T07:27:04.961Z,3.00
2022-12-27T07:29:34.250Z,2.67
2022-12-27T07:32:02.191Z,3.00
2022-12-27T07:34:30.127Z,2.43
2022-12-27T07:36:58.034Z,3.60
2022-12-27T07:39:25.923Z,3.90
2022-12-27T07:41:53.854Z,2.83
2022-12-27T07:44:21.739Z,2.10
2022-12-27T07:46:51.265Z,2.60
2022-12-27T07:49:19.340Z,3.90
2022-12-27T07:51:47.412Z,4.07
2022-12-27T07:54:15.320Z,4.20
2022-12-27T07:56:43.207Z,3.73
2022-12-27T07:59:13.704Z,5.10
2022-12-27T08:01:58.551Z,5.00
2022-12-27T08:04:27.940Z,9.63
2022-12-27T08:06:57.858Z,10.70
2022-12-27T08:09:29.336Z,12.10
2022-12-27T08:11:57.310Z,5.53
2022-12-27T08:14:25.884Z,4.20
2022-12-27T08:16:54.144Z,7.40
2022-12-27T08:19:22.112Z,5.33
2022-12-27T08:21:51.394Z,4.50
2022-12-27T08:24:19.321Z,3.83
2022-12-27T08:26:47.229Z,4.73
2022-12-27T08:29:15.177Z,5.60
2022-12-27T08:31:43.072Z,3.67
2022-12-27T08:34:10.964Z,4.30
2022-12-27T08:36:55.303Z,3.80
2022-12-27T08:39:25.410Z,2.80
2022-12-27T08:41:54.338Z,3.10
2022-12-27T08:44:22.345Z,3.60
2022-12-27T08:46:50.680Z,2.92
2022-12-27T08:49:18.596Z,2.92
2022-12-27T08:51:46.567Z,2.22
2022-12-27T08:54:14.501Z,2.72
2022-12-27T08:56:43.769Z,2.60
2022-12-27T08:59:11.801Z,2.20
2022-12-27T09:01:39.820Z,2.38
2022-12-27T09:04:07.739Z,2.40
2022-12-27T09:06:35.716Z,1.70
2022-12-27T09:09:03.639Z,2.83
2022-12-27T09:11:33.444Z,2.10
2022-12-27T09:14:04.452Z,2.50
2022-12-27T09:16:34.100Z,2.00
2022-12-27T09:19:02.864Z,2.15
2022-12-27T09:21:32.941Z,3.58
2022-12-27T09:24:01.122Z,1.52
2022-12-27T09:26:30.998Z,2.97
2022-12-27T09:29:00.135Z,2.30
2022-12-27T09:31:29.655Z,2.15
2022-12-27T09:33:58.927Z,2.65
2022-12-27T09:36:28.785Z,1.90
2022-12-27T09:38:58.199Z,2.83
2022-12-27T09:42:44.492Z,2.90
2022-12-27T09:44:32.973Z,2.88
2022-12-27T09:47:07.399Z,2.35
2022-12-27T09:49:39.531Z,1.63
2022-12-27T09:52:13.444Z,3.60
2022-12-27T09:55:04.373Z,1.83
2022-12-27T09:57:37.439Z,2.73
2022-12-27T10:00:12.308Z,2.33
2022-12-27T10:02:44.372Z,2.47
2022-12-27T10:05:23.310Z,3.13
2022-12-27T10:08:02.836Z,3.03
2022-12-27T10:10:42.174Z,2.20
2022-12-27T10:13:24.110Z,3.53
2022-12-27T10:16:01.799Z,2.40
2022-12-27T10:18:45.652Z,3.20
2022-12-27T10:21:20.758Z,2.37
2022-12-27T10:23:55.786Z,2.47
2022-12-27T10:26:24.001Z,2.10
2022-12-27T10:28:57.513Z,3.07
2022-12-27T10:31:27.314Z,3.00
2022-12-27T10:33:56.787Z,1.90
2022-12-27T10:36:27.180Z,3.40
2022-12-27T10:38:56.071Z,3.43
2022-12-27T10:41:40.769Z,2.67
2022-12-27T10:44:12.398Z,2.27
2022-12-27T10:46:42.557Z,1.87
2022-12-27T10:49:25.035Z,1.60
2022-12-27T10:51:54.594Z,3.90
2022-12-27T10:54:26.122Z,3.00
2022-12-27T10:56:54.972Z,3.03
2022-12-27T10:59:24.908Z,2.07
2022-12-27T11:02:16.822Z,4.10
2022-12-27T11:04:59.663Z,1.70
2022-12-27T11:07:31.557Z,3.70
2022-12-27T11:10:16.389Z,2.57
2022-12-27T11:12:57.356Z,2.53
2022-12-27T11:15:26.677Z,4.60
2022-12-27T11:17:56.750Z,1.87
2022-12-27T11:20:30.282Z,4.37
2022-12-27T11:23:02.736Z,2.27
2022-12-27T11:25:31.745Z,2.40
2022-12-27T11:28:04.875Z,2.33
2022-12-27T11:30:35.040Z,3.87
2022-12-27T11:33:07.085Z,2.17
2022-12-27T11:35:48.315Z,3.43
2022-12-27T11:38:25.539Z,2.17
2022-12-27T11:41:01.268Z,3.70
2022-12-27T11:43:34.076Z,2.13
2022-12-27T11:46:06.906Z,2.33
2022-12-27T11:48:39.597Z,3.40
2022-12-27T11:51:31.227Z,3.57
2022-12-27T11:54:16.896Z,2.27
2022-12-27T11:56:49.222Z,3.17
2022-12-27T11:59:48.512Z,2.07
2022-12-27T12:02:52.637Z,3.37
2022-12-27T12:05:40.250Z,1.87
2022-12-27T12:08:38.570Z,2.03
2022-12-27T12:11:16.695Z,1.50
2022-12-27T12:13:59.928Z,2.33
2022-12-27T12:16:57.898Z,3.00
2022-12-27T12:19:42.598Z,4.37
2022-12-27T12:22:30.782Z,3.83
2022-12-27T12:25:24.649Z,2.73
2022-12-27T12:28:47.349Z,3.73
2022-12-27T12:31:16.237Z,3.33
2022-12-27T12:34:03.046Z,4.07
2022-12-27T12:37:02.350Z,3.87
2022-12-27T12:39:53.205Z,3.73
2022-12-27T12:42:36.996Z,3.03
2022-12-27T12:45:23.729Z,3.50
2022-12-27T12:48:37.179Z,3.60
2022-12-27T12:51:33.288Z,3.60
2022-12-27T12:54:14.223Z,3.13
2022-12-27T12:56:59.439Z,5.37
2022-12-27T12:59:57.555Z,3.53
2022-12-27T13:02:57.132Z,4.40
2022-12-27T13:05:34.007Z,4.67
2022-12-27T13:08:12.528Z,2.80
2022-12-27T13:10:52.825Z,4.13
2022-12-27T13:13:30.846Z,2.27
2022-12-27T13:16:15.763Z,3.30
2022-12-27T13:18:52.974Z,2.77
2022-12-27T13:21:31.018Z,2.87
2022-12-27T13:24:08.559Z,2.73
2022-12-27T13:26:48.451Z,3.00
2022-12-27T13:29:46.957Z,3.23
2022-12-27T13:32:28.688Z,2.63
2022-12-27T13:35:06.462Z,6.23
2022-12-27T13:37:47.896Z,1.87
2022-12-27T13:40:32.022Z,3.47
2022-12-27T13:43:47.697Z,3.07
2022-12-27T13:46:34.157Z,2.63
2022-12-27T13:49:23.674Z,4.00
2022-12-27T13:51:53.325Z,3.97
2022-12-27T13:55:00.955Z,3.23
2022-12-27T13:58:04.329Z,2.97
2022-12-27T14:00:39.923Z,6.17
2022-12-27T14:03:28.507Z,5.13
2022-12-27T14:06:20.151Z,5.23
2022-12-27T14:09:16.884Z,4.07
2022-12-27T14:12:03.807Z,4.00
2022-12-27T14:14:33.728Z,6.50
2022-12-27T14:17:15.613Z,3.90
2022-12-27T14:19:57.098Z,4.80
2022-12-27T14:22:53.941Z,8.27
2022-12-27T14:25:59.366Z,5.90
2022-12-27T14:29:00.161Z,7.23
2022-12-27T14:32:11.851Z,10.20
2022-12-27T14:35:07.667Z,9.50
2022-12-27T14:38:17.176Z,8.80
2022-12-27T14:41:32.865Z,4.43
2022-12-27T14:44:57.046Z,4.07
2022-12-27T14:48:04.769Z,3.43
2022-12-27T14:51:08.047Z,3.10
2022-12-27T14:54:05.182Z,4.47
2022-12-27T14:56:37.720Z,4.77
2022-12-27T14:59:20.290Z,4.20
2022-12-27T15:01:59.722Z,4.50
2022-12-27T15:04:44.191Z,3.30
2022-12-27T15:07:32.671Z,2.57
2022-12-27T15:10:09.690Z,3.90
2022-12-27T15:12:45.157Z,3.17
2022-12-27T15:15:45.783Z,4.57
2022-12-27T15:18:28.717Z,3.73
2022-12-27T15:21:21.413Z,3.57
2022-12-27T15:23:54.228Z,3.33
2022-12-27T15:26:34.663Z,2.90
2022-12-27T15:29:15.687Z,3.77
2022-12-27T15:31:56.849Z,3.30
2022-12-27T15:34:40.663Z,3.60
2022-12-27T15:37:48.454Z,3.93
2022-12-27T15:40:57.684Z,5.33
2022-12-27T15:43:44.456Z,4.13
2022-12-27T15:46:39.369Z,3.50
2022-12-27T15:49:36.625Z,4.60
2022-12-27T15:52:12.078Z,4.10
2022-12-27T15:55:00.207Z,5.67
2022-12-27T15:57:55.239Z,5.23
2022-12-27T16:00:33.391Z,3.70
2022-12-27T16:03:03.826Z,5.17
2022-12-27T16:05:46.443Z,7.70
2022-12-27T16:08:28.725Z,30.00
2022-12-27T16:10:58.200Z,27.27
2022-12-27T16:13:42.981Z,23.00
2022-12-27T16:16:55.973Z,18.73
2022-12-27T16:22:43.408Z,12.87
2022-12-27T16:25:28.487Z,12.47
2022-12-27T16:28:02.417Z,9.00
2022-12-27T16:30:40.095Z,11.83
2022-12-27T16:33:20.917Z,14.20
2022-12-27T16:36:04.747Z,12.57
2022-12-27T16:38:35.499Z,6.77
2022-12-27T16:41:15.533Z,7.63
2022-12-27T16:44:15.331Z,9.80
2022-12-27T16:47:00.356Z,7.60
2022-12-27T16:49:54.773Z,9.23
2022-12-27T16:52:48.799Z,9.33
2022-12-27T16:55:37.100Z,5.30
2022-12-27T16:58:23.307Z,3.27
2022-12-27T17:00:52.232Z,5.53
2022-12-27T17:03:45.453Z,5.00
2022-12-27T17:06:50.392Z,4.50
2022-12-27T17:09:41.479Z,7.03
2022-12-27T17:12:23.107Z,6.30
2022-12-27T17:14:55.199Z,5.07
2022-12-27T17:17:24.415Z,6.93
2022-12-27T17:19:58.105Z,7.87
2022-12-27T17:22:32.305Z,7.67
2022-12-27T17:25:03.324Z,7.07
2022-12-27T17:27:47.644Z,7.43
2022-12-27T17:30:22.764Z,13.17
2022-12-27T17:33:14.023Z,11.03
2022-12-27T17:35:57.008Z,10.43
2022-12-27T17:38:35.571Z,8.33
2022-12-27T17:41:15.963Z,7.57
2022-12-27T17:44:13.778Z,9.47
2022-12-27T17:46:53.305Z,7.53
2022-12-27T17:49:28.187Z,9.93
2022-12-27T17:52:14.836Z,11.00
2022-12-27T17:55:02.442Z,10.63
2022-12-27T17:57:47.702Z,6.67
2022-12-27T18:00:25.418Z,8.07
2022-12-27T18:02:54.506Z,7.40
2022-12-27T18:05:28.433Z,6.70
2022-12-27T18:08:03.627Z,7.20
2022-12-27T18:10:34.281Z,12.07
2022-12-27T18:13:06.231Z,9.93
2022-12-27T18:15:43.995Z,10.83
2022-12-27T18:18:18.798Z,16.07
2022-12-27T18:20:46.553Z,16.20
2022-12-27T18:23:19.217Z,11.03
2022-12-27T18:25:52.902Z,13.10
2022-12-27T18:28:28.691Z,10.17
2022-12-27T18:31:06.357Z,12.77
2022-12-27T18:33:38.674Z,11.53
2022-12-27T18:36:08.935Z,11.93
2022-12-27T18:38:41.071Z,18.60
2022-12-27T18:41:12.652Z,15.53
2022-12-27T18:43:44.840Z,8.83
2022-12-27T18:46:19.797Z,7.17
2022-12-27T18:48:49.063Z,6.80
2022-12-27T18:51:16.852Z,8.10
2022-12-27T18:53:45.733Z,8.63
2022-12-27T18:56:29.181Z,14.10
2022-12-27T18:59:05.705Z,13.27
2022-12-27T19:01:41.793Z,12.87
2022-12-27T19:04:24.419Z,13.60
2022-12-27T19:06:57.191Z,11.90
2022-12-27T19:09:29.089Z,10.60
2022-12-27T19:11:59.790Z,7.77
2022-12-27T19:14:36.240Z,8.37
2022-12-27T19:17:10.788Z,9.10
2022-12-27T19:19:39.300Z,7.23
2022-12-27T19:22:32.134Z,8.47
2022-12-27T19:25:01.013Z,8.97
2022-12-27T19:27:28.791Z,11.20
2022-12-27T19:29:56.520Z,11.63
2022-12-27T19:32:32.583Z,12.40
2022-12-27T19:35:04.167Z,9.67
2022-12-27T19:37:33.549Z,14.13
2022-12-27T19:40:01.523Z,11.27
2022-12-27T19:42:32.078Z,12.37
2022-12-27T19:44:59.950Z,15.27
2022-12-27T19:47:29.054Z,16.17
2022-12-27T19:49:56.780Z,14.57
2022-12-27T19:52:27.366Z,13.47
2022-12-27T19:55:03.046Z,12.13
2022-12-27T19:57:30.854Z,12.03
2022-12-27T19:59:58.574Z,11.33
2022-12-27T20:02:26.524Z,13.23
2022-12-27T20:04:55.684Z,12.83
2022-12-27T20:07:25.519Z,12.83
2022-12-27T20:09:53.230Z,11.50
2022-12-27T20:12:21.059Z,13.30
2022-12-27T20:14:48.817Z,12.40
2022-12-27T20:17:16.557Z,12.37
2022-12-27T20:19:44.348Z,13.20
2022-12-27T20:22:13.460Z,14.10
2022-12-27T20:24:41.212Z,15.37
2022-12-27T20:27:08.948Z,15.77
2022-12-27T20:29:36.887Z,15.00
2022-12-27T20:32:04.714Z,15.30
2022-12-27T20:34:32.461Z,13.60
2022-12-27T20:37:00.544Z,14.43
2022-12-27T20:39:29.612Z,15.23
2022-12-27T20:41:57.330Z,15.27
2022-12-27T20:44:25.026Z,17.57
2022-12-27T20:46:52.810Z,22.63
2022-12-27T20:49:20.519Z,23.70
2022-12-27T20:51:48.253Z,22.10
2022-12-27T20:54:16.565Z,23.53
2022-12-27T20:56:45.620Z,22.87
2022-12-27T20:59:13.641Z,23.67
2022-12-27T21:01:41.496Z,19.50
2022-12-27T21:04:10.256Z,20.77
2022-12-27T21:06:37.963Z,17.93
2022-12-27T21:09:08.364Z,16.60
2022-12-27T21:11:36.289Z,17.73
2022-12-27T21:14:05.989Z,17.87
2022-12-27T21:16:35.813Z,18.83
2022-12-27T21:19:04.977Z,17.07
2022-12-27T21:21:34.360Z,16.67
2022-12-27T21:24:02.713Z,15.93
2022-12-27T21:26:32.802Z,14.20
2022-12-27T21:29:02.040Z,16.07
2022-12-27T21:31:31.966Z,16.47
2022-12-27T21:34:00.461Z,14.33
2022-12-27T21:36:30.132Z,12.93
2022-12-27T21:38:58.707Z,13.73
2022-12-27T21:41:28.623Z,14.80
2022-12-27T21:43:56.617Z,13.80
2022-12-27T21:46:26.151Z,11.97
2022-12-27T21:48:57.813Z,11.33
2022-12-27T21:51:26.092Z,13.67
2022-12-27T21:53:54.900Z,11.70
2022-12-27T21:56:23.065Z,13.70
2022-12-27T21:58:51.464Z,9.90
2022-12-27T22:01:21.354Z,9.67
2022-12-27T22:03:52.095Z,10.10
2022-12-27T22:06:22.935Z,9.23
2022-12-27T22:08:52.268Z,8.37
2022-12-27T22:11:21.777Z,8.30
2022-12-27T22:13:49.886Z,9.93
2022-12-27T22:16:20.225Z,8.77
2022-12-27T22:18:49.346Z,8.07
2022-12-27T22:21:19.320Z,8.03
2022-12-27T22:23:50.264Z,9.83
2022-12-27T22:26:20.176Z,8.80
2022-12-27T22:28:48.070Z,9.30
2022-12-27T22:31:18.045Z,11.03
2022-12-27T22:33:46.342Z,9.33
2022-12-27T22:36:17.292Z,10.43
2022-12-27T22:38:49.464Z,9.47
2022-12-27T22:41:22.375Z,9.57
2022-12-27T22:43:51.922Z,9.50
2022-12-27T22:46:20.335Z,7.47
2022-12-27T22:48:50.729Z,7.73
2022-12-27T22:51:20.584Z,9.43
2022-12-27T22:53:48.297Z,8.17
2022-12-27T22:56:17.998Z,9.87
2022-12-27T22:58:47.131Z,10.00
2022-12-27T23:01:16.241Z,7.60
2022-12-27T23:03:44.812Z,11.13
2022-12-27T23:06:12.983Z,8.10
2022-12-27T23:08:40.985Z,8.63
2022-12-27T23:11:11.757Z,7.50
2022-12-27T23:13:39.606Z,11.70
2022-12-27T23:16:09.425Z,8.50
2022-12-27T23:18:39.506Z,8.20
2022-12-27T23:21:21.332Z,9.57
2022-12-27T23:23:51.859Z,10.23
2022-12-27T23:26:22.412Z,9.87
2022-12-27T23:28:51.462Z,8.43
2022-12-27T23:31:22.000Z,9.40
2022-12-27T23:33:49.828Z,8.00
2022-12-27T23:36:18.165Z,7.77
2022-12-27T23:38:46.476Z,7.70
2022-12-27T23:41:17.510Z,9.63
2022-12-27T23:43:54.353Z,9.70
2022-12-27T23:46:27.452Z,11.80
2022-12-27T23:48:55.775Z,9.37
2022-12-27T23:51:23.943Z,9.43
2022-12-27T23:53:51.906Z,13.10
2022-12-27T23:56:21.917Z,7.57
2022-12-27T23:58:51.490Z,9.70
